Marysville, KS

5:33 AM CST on February 10, 2016 (GMT -0600)
N0NB | | Change Station
CLOSE
Current Station
Personal Weather Station
Location: Bremen, KS
Elevation: 1318 ft
Nearby Weather Stations

Elev 1318 ft 39.91 °N, 96.77 °W | Updated 5 seconds ago

Overcast
Overcast
27.7 °F
Feels Like 23 °F
N
4.0
Wind Variable Wind from SSW
Gusts 8.0 mph

Today
High -- | Low -- °F
--% Chance of Precip.
Yesterday
High -- | Low -- °F
Precip. -- in
Pressure 30.06 in
Visibility 10.0 miles
Clouds Overcast 9000 ft
Windchill 23 °F
Dew Point 17 °F
Humidity 63%
Rainfall 0.00 in
Snow Depth Not available.
7:25 AM 5:56 PM
Waxing Crescent, 5% visible
METAR KBIE 101115Z AUTO 19011KT 10SM OVC090 M02/M09 A3006 RMK AO2 T10221090
Pressure 30.06 in
Visibility 10.0 miles
Clouds Overcast 9000 ft
Windchill 23 °F
Dew Point 17 °F
Humidity 63%
Rainfall 0.00 in
Snow Depth Not available.
7:25 AM 5:56 PM
Waxing Crescent, 5% visible
METAR KBIE 101115Z AUTO 19011KT 10SM OVC090 M02/M09 A3006 RMK AO2 T10221090

10-Day Weather Forecast

Almanac

Astronomy

Feb. 10, 2016 Rise Set
Actual Time
Civil Twilight
Nautical Twilight
Astronomical Twilight
Moon
Length of Visible Light
Length of Day
Tomorrow will be .
, % of the Moon is Illuminated

Today's Extremes

State Highs State Lows

Community

WunderPhotos

Upload Photos

1,891,830 photos uploaded!

WunderBlog® & News

Nearby

Air Quality

  Air Quality AQ Index Pollutant
Not available.

Snow Depth

Station Depth Elevation

Earthquake Activity

City Distance Mag. Time & Date
Minimum magnitude displayed is 2.5.

Coastal Water Temperatures

Place Temperature

Stations

Nearby Weather Stations

Station Location Temp. Windchill Dew Point Humidity Wind Precip. Elev Updated Type
                   

Watches & Warnings

There are currently no watches in effect.